Time;durP1;ratioP1;P1;durP2;ratioP2;P2;SDS_P1;SDS_P2;PMS_P1;PMS_P2;Temp;Humidity;BMP_temperature;BMP_pressure;BME280_temperature;BME280_humidity;BME280_pressure;Samples;Min_cycle;Max_cycle;Signal;HPM_P1;HPM_P2
2021/11/13 00:00:10;;;;;;;;;;;;;;;13.81;50.12;101969.28;143741;984;46010;-75
2021/11/13 00:02:37;;;;;;;;;;;;;;;13.74;50.55;101965.66;143743;984;46002;-76
2021/11/13 00:05:03;;;;;;;;;;;;;;;13.73;50.33;101963.97;143741;982;46931;-76
2021/11/13 00:07:32;;;;;;;;;;;;;;;13.73;50.44;101964.84;143745;984;46002;-75
2021/11/13 00:09:58;;;;;;;;;;;;;;;13.77;50.33;101965.28;143742;980;46013;-76
2021/11/13 00:12:24;;;;;;;;;;;;;;;13.72;50.33;101957.75;143742;980;46004;-76
2021/11/13 00:14:50;;;;;;;;;;;;;;;13.75;50.21;101960.09;143741;982;46936;-75
2021/11/13 00:17:16;;;;;;;;;;;;;;;13.74;50.51;101966.50;143745;984;46002;-75
2021/11/13 00:19:43;;;;;;;;;;;;;;;13.70;50.67;101962.50;143741;980;46012;-75
2021/11/13 00:22:09;;;;;;;;;;;;;;;13.72;50.33;101968.56;143742;980;46004;-75
2021/11/13 00:24:36;;;;;;;;;;;;;;;13.68;50.50;101969.13;143741;981;46006;-76
2021/11/13 00:27:03;;;;;;;;;;;;;;;13.62;50.72;101962.59;143743;985;46002;-76
2021/11/13 00:29:29;;;;;;;;;;;;;;;13.64;50.84;101971.34;143740;980;46012;-76
2021/11/13 00:31:55;;;;;;;;;;;;;;;13.58;50.60;101970.25;143744;980;46004;-76
2021/11/13 00:34:22;;;;;;;;;;;;;;;13.62;50.70;101970.69;143742;986;46936;-76
2021/11/13 00:36:48;;;;;;;;;;;;;;;13.59;50.73;101973.81;143745;984;46002;-75
2021/11/13 00:39:14;;;;;;;;;;;;;;;13.56;50.55;101975.00;143741;980;46938;-76
2021/11/13 00:41:40;;;;;;;;;;;;;;;13.59;50.41;101985.41;143742;979;46939;-76
2021/11/13 00:44:09;;;;;;;;;;;;;;;13.53;50.69;101977.25;143741;982;46010;-75
2021/11/13 00:46:35;;;;;;;;;;;;;;;13.49;50.70;101974.09;143746;984;46002;-75
2021/11/13 00:49:01;;;;;;;;;;;;;;;13.49;50.88;101977.59;143744;969;46012;-76
2021/11/13 00:51:27;;;;;;;;;;;;;;;13.49;50.91;101971.38;143743;980;46004;-75
2021/11/13 00:53:53;;;;;;;;;;;;;;;13.48;51.06;101975.09;143740;982;46011;-75
2021/11/13 00:56:19;;;;;;;;;;;;;;;13.47;51.03;101974.25;143746;983;46002;-75
2021/11/13 00:58:47;;;;;;;;;;;;;;;13.48;51.17;101973.22;143741;980;46012;-75
2021/11/13 01:01:13;;;;;;;;;;;;;;;13.51;50.76;101977.41;143743;980;46004;-75
2021/11/13 01:03:39;;;;;;;;;;;;;;;13.53;50.50;101972.66;143740;981;46010;-75
2021/11/13 01:06:05;;;;;;;;;;;;;;;13.57;50.41;101981.25;143745;984;46002;-75
2021/11/13 01:08:31;;;;;;;;;;;;;;;13.53;50.51;101985.34;143741;970;46013;-73
2021/11/13 01:10:57;;;;;;;;;;;;;;;13.52;50.62;101987.19;143744;979;46004;-74
2021/11/13 01:13:23;;;;;;;;;;;;;;;13.51;50.44;101984.69;143742;982;46010;-74
2021/11/13 01:15:49;;;;;;;;;;;;;;;13.41;50.55;101982.25;143743;984;46003;-74
2021/11/13 01:18:15;;;;;;;;;;;;;;;13.41;50.91;101991.22;143742;979;46012;-75
2021/11/13 01:20:41;;;;;;;;;;;;;;;13.42;50.90;101987.47;143742;980;46004;-76
2021/11/13 01:23:07;;;;;;;;;;;;;;;13.45;50.81;101984.41;143741;982;46010;-75
2021/11/13 01:25:33;;;;;;;;;;;;;;;13.43;50.70;101983.75;143745;983;46002;-75
2021/11/13 01:27:59;;;;;;;;;;;;;;;13.36;50.97;101977.41;143741;980;46012;-75
2021/11/13 01:30:25;;;;;;;;;;;;;;;13.33;51.14;101977.75;143739;980;47005;-75
2021/11/13 01:32:51;;;;;;;;;;;;;;;13.34;51.02;101971.34;143741;972;46010;-75
2021/11/13 01:35:18;;;;;;;;;;;;;;;13.32;50.99;101968.84;143745;984;46002;-75
2021/11/13 01:37:44;;;;;;;;;;;;;;;13.30;50.82;101964.63;143743;980;46938;-75
2021/11/13 01:40:15;;;;;;;;;;;;;;;13.30;50.83;101965.50;143742;979;46012;-75
2021/11/13 01:42:40;;;;;;;;;;;;;;;13.33;50.80;101961.56;143741;982;46010;-76
2021/11/13 01:45:07;;;;;;;;;;;;;;;13.29;51.01;101965.66;143744;984;46002;-76
2021/11/13 01:47:33;;;;;;;;;;;;;;;13.27;51.02;101963.16;143742;979;46013;-75
2021/11/13 01:49:59;;;;;;;;;;;;;;;13.27;50.75;101965.00;143742;980;46004;-76
2021/11/13 01:52:25;;;;;;;;;;;;;;;13.23;50.62;101972.66;143742;982;46010;-76
2021/11/13 01:54:56;;;;;;;;;;;;;;;13.24;51.58;101965.41;143746;983;46002;-75
2021/11/13 01:57:23;;;;;;;;;;;;;;;13.21;51.26;101961.19;143744;980;46004;-74
2021/11/13 01:59:51;;;;;;;;;;;;;;;13.18;51.49;101965.13;143743;980;46004;-74
2021/11/13 02:02:18;;;;;;;;;;;;;;;13.16;51.07;101958.22;143743;981;46010;-75
2021/11/13 02:04:44;;;;;;;;;;;;;;;13.14;51.35;101955.72;143746;982;46002;-74
2021/11/13 02:07:10;;;;;;;;;;;;;;;13.09;51.60;101960.00;143740;980;46938;-71
2021/11/13 02:09:36;;;;;;;;;;;;;;;13.11;51.56;101957.94;143743;979;46004;-75
2021/11/13 02:12:02;;;;;;;;;;;;;;;13.11;51.58;101958.78;143740;982;46010;-74
2021/11/13 02:14:29;;;;;;;;;;;;;;;13.12;51.63;101943.44;143744;984;46010;-75
2021/11/13 02:16:54;;;;;;;;;;;;;;;13.13;51.44;101948.63;143744;971;46012;-74
2021/11/13 02:19:20;;;;;;;;;;;;;;;13.17;51.02;101946.41;143742;980;46013;-75
2021/11/13 02:21:46;;;;;;;;;;;;;;;13.18;49.89;101951.63;143742;982;46010;-74
2021/11/13 02:24:12;;;;;;;;;;;;;;;13.24;50.10;101950.03;143746;983;46003;-75
2021/11/13 02:26:38;;;;;;;;;;;;;;;13.27;49.84;101944.28;143742;980;46012;-75
2021/11/13 02:29:05;;;;;;;;;;;;;;;13.32;49.66;101944.56;143742;980;46938;-76
2021/11/13 02:31:33;;;;;;;;;;;;;;;13.32;49.71;101952.66;143740;981;46011;-75
2021/11/13 02:33:59;;;;;;;;;;;;;;;13.31;49.96;101955.53;143744;984;46002;-75
2021/11/13 02:36:25;;;;;;;;;;;;;;;13.29;50.47;101963.81;143740;980;46012;-76
2021/11/13 02:38:54;;;;;;;;;;;;;;;13.25;51.09;101962.50;143742;979;46939;-75
2021/11/13 02:41:22;;;;;;;;;;;;;;;13.25;50.91;101967.06;143741;982;46010;-76
2021/11/13 02:43:48;;;;;;;;;;;;;;;13.29;50.95;101963.81;143745;986;46002;-75
2021/11/13 02:46:15;;;;;;;;;;;;;;;13.28;50.97;101958.59;143742;980;46013;-76
2021/11/13 02:48:41;;;;;;;;;;;;;;;13.25;51.38;101962.50;143741;979;47004;-75
2021/11/13 02:51:08;;;;;;;;;;;;;;;13.19;51.20;101961.41;143741;982;46010;-76
2021/11/13 02:53:34;;;;;;;;;;;;;;;13.22;51.44;101962.88;143746;984;46002;-76
2021/11/13 02:56:01;;;;;;;;;;;;;;;13.21;51.54;101963.06;143740;980;47011;-75
2021/11/13 02:58:27;;;;;;;;;;;;;;;13.22;51.50;101957.47;143741;980;46938;-75
2021/11/13 03:00:56;;;;;;;;;;;;;;;13.24;51.62;101965.41;143742;982;46006;-74
2021/11/13 03:03:22;;;;;;;;;;;;;;;13.27;51.69;101967.69;143744;975;46010;-74
2021/11/13 03:05:55;;;;;;;;;;;;;;;13.20;51.76;101959.53;143741;980;46012;-75
2021/11/13 03:08:26;;;;;;;;;;;;;;;13.21;51.54;101961.19;143743;984;46012;-75
2021/11/13 03:10:53;;;;;;;;;;;;;;;13.21;51.67;101958.50;143742;982;46010;-75
2021/11/13 03:13:19;;;;;;;;;;;;;;;13.22;51.58;101962.88;143745;984;46002;-74
2021/11/13 03:15:45;;;;;;;;;;;;;;;13.25;51.77;101958.97;143740;980;46013;-75
2021/11/13 03:18:11;;;;;;;;;;;;;;;13.21;52.09;101960.38;143742;979;46004;-73
2021/11/13 03:20:37;;;;;;;;;;;;;;;13.23;52.14;101958.34;143741;982;46010;-74
2021/11/13 03:23:03;;;;;;;;;;;;;;;13.18;52.25;101956.16;143745;984;46011;-74
2021/11/13 03:25:33;;;;;;;;;;;;;;;13.18;52.14;101961.56;143741;979;46012;-73
2021/11/13 03:28:00;;;;;;;;;;;;;;;13.17;52.08;101966.13;143743;980;46004;-74
2021/11/13 03:30:26;;;;;;;;;;;;;;;13.13;52.19;101966.69;143740;982;46011;-74
2021/11/13 03:32:52;;;;;;;;;;;;;;;13.13;52.15;101962.13;143746;984;46002;-74
2021/11/13 03:35:26;;;;;;;;;;;;;;;13.08;52.42;101969.91;143742;980;46012;-74
2021/11/13 03:37:54;;;;;;;;;;;;;;;13.06;52.53;101958.47;143742;980;46939;-74
2021/11/13 03:40:20;;;;;;;;;;;;;;;13.08;52.10;101964.53;143744;982;46010;-74
2021/11/13 03:42:46;;;;;;;;;;;;;;;13.03;52.45;101957.00;143744;984;46002;-75
2021/11/13 03:45:12;;;;;;;;;;;;;;;12.99;52.40;101965.66;143741;973;46013;-75
2021/11/13 03:47:38;;;;;;;;;;;;;;;12.97;52.51;101963.13;143743;977;46013;-75
2021/11/13 03:50:05;;;;;;;;;;;;;;;12.96;52.66;101966.88;143742;982;46010;-75
2021/11/13 03:52:31;;;;;;;;;;;;;;;12.97;52.94;101965.00;143745;984;46002;-74
2021/11/13 03:54:57;;;;;;;;;;;;;;;12.99;52.66;101977.25;143740;979;46013;-75
2021/11/13 03:57:23;;;;;;;;;;;;;;;12.96;52.55;101974.09;143743;980;46004;-76
2021/11/13 03:59:49;;;;;;;;;;;;;;;12.97;52.34;101971.22;143740;982;46011;-75
2021/11/13 04:02:15;;;;;;;;;;;;;;;12.93;52.15;101978.00;143745;983;46002;-76
2021/11/13 04:04:42;;;;;;;;;;;;;;;12.95;52.07;101978.66;143740;980;46012;-75
2021/11/13 04:07:09;;;;;;;;;;;;;;;12.93;51.96;101978.00;143742;980;46004;-75
2021/11/13 04:09:35;;;;;;;;;;;;;;;12.95;52.01;101972.44;143740;981;46010;-75
2021/11/13 04:12:06;;;;;;;;;;;;;;;12.93;51.95;101974.47;143748;984;46002;-76
2021/11/13 04:14:32;;;;;;;;;;;;;;;12.93;51.79;101972.63;143741;972;46012;-75
2021/11/13 04:16:59;;;;;;;;;;;;;;;12.94;51.58;101973.44;143739;967;50012;-75
2021/11/13 04:19:25;;;;;;;;;;;;;;;12.88;51.99;101970.44;143740;960;46010;-75
2021/11/13 04:21:51;;;;;;;;;;;;;;;12.83;52.08;101972.03;143745;981;46002;-76
2021/11/13 04:24:17;;;;;;;;;;;;;;;12.85;51.86;101975.38;143742;979;46013;-75
2021/11/13 04:26:43;;;;;;;;;;;;;;;12.87;51.92;101976.88;143741;980;47004;-75
2021/11/13 04:29:09;;;;;;;;;;;;;;;12.84;52.08;101971.84;143741;982;46011;-75
2021/11/13 04:31:35;;;;;;;;;;;;;;;12.81;51.70;101979.44;143746;983;46002;-75
2021/11/13 04:34:03;;;;;;;;;;;;;;;12.74;52.18;101980.19;143741;974;46012;-75
2021/11/13 04:36:37;;;;;;;;;;;;;;;12.74;52.04;101977.50;143743;980;46005;-76
2021/11/13 04:39:07;;;;;;;;;;;;;;;12.71;52.19;101980.56;143741;981;46010;-75
2021/11/13 04:41:34;;;;;;;;;;;;;;;12.73;52.30;101986.63;143744;984;47002;-75
2021/11/13 04:44:00;;;;;;;;;;;;;;;12.76;52.35;101995.34;143743;971;46013;-75
2021/11/13 04:46:26;;;;;;;;;;;;;;;12.71;52.27;101991.34;143743;979;46004;-76
2021/11/13 04:48:52;;;;;;;;;;;;;;;12.74;52.04;101987.44;143741;982;46010;-76
2021/11/13 04:51:18;;;;;;;;;;;;;;;12.73;51.87;101994.69;143745;984;46002;-76
2021/11/13 04:53:44;;;;;;;;;;;;;;;12.75;52.12;101994.50;143740;979;46939;-76
2021/11/13 04:56:10;;;;;;;;;;;;;;;12.73;52.09;102007.31;143742;980;46004;-74
2021/11/13 04:58:36;;;;;;;;;;;;;;;12.72;51.99;102005.66;143743;974;45936;-76
2021/11/13 05:01:02;;;;;;;;;;;;;;;12.71;52.16;102010.22;143746;983;46002;-75
2021/11/13 05:03:28;;;;;;;;;;;;;;;12.74;52.19;102017.09;143744;980;46012;-75
2021/11/13 05:05:54;;;;;;;;;;;;;;;12.73;51.98;102016.25;143742;980;46004;-75
2021/11/13 05:08:20;;;;;;;;;;;;;;;12.77;52.03;102026.69;143738;981;47002;-76
2021/11/13 05:10:46;;;;;;;;;;;;;;;12.70;52.00;102016.63;143745;984;46002;-76
2021/11/13 05:13:12;;;;;;;;;;;;;;;12.64;52.43;102025.41;143741;980;46012;-76
2021/11/13 05:15:38;;;;;;;;;;;;;;;12.65;52.48;102027.09;143744;980;46004;-76
2021/11/13 05:18:04;;;;;;;;;;;;;;;12.65;52.36;102031.66;143740;982;46010;-76
2021/11/13 05:20:30;;;;;;;;;;;;;;;12.67;52.18;102029.63;143744;984;46003;-75
2021/11/13 05:22:56;;;;;;;;;;;;;;;12.76;52.11;102038.50;143742;973;46013;-76
2021/11/13 05:25:22;;;;;;;;;;;;;;;12.75;51.88;102034.94;143742;980;46004;-76
2021/11/13 05:27:49;;;;;;;;;;;;;;;12.80;52.13;102032.56;143738;982;46936;-75
2021/11/13 05:30:21;;;;;;;;;;;;;;;12.77;52.06;102038.31;143745;983;46002;-76
2021/11/13 05:32:48;;;;;;;;;;;;;;;12.81;52.38;102044.16;143744;980;46012;-77
2021/11/13 05:35:14;;;;;;;;;;;;;;;12.80;52.32;102040.63;143742;980;46004;-75
2021/11/13 05:37:40;;;;;;;;;;;;;;;12.82;52.10;102037.75;143740;981;46011;-76
2021/11/13 05:40:07;;;;;;;;;;;;;;;12.82;52.22;102041.31;143746;984;46002;-76
2021/11/13 05:42:34;;;;;;;;;;;;;;;12.86;52.25;102041.75;143744;968;46012;-75
2021/11/13 05:45:00;;;;;;;;;;;;;;;12.85;52.19;102045.47;143742;980;46938;-76
2021/11/13 05:47:26;;;;;;;;;;;;;;;12.85;52.42;102046.34;143741;982;46010;-76
2021/11/13 05:49:52;;;;;;;;;;;;;;;12.92;52.14;102042.91;143744;984;46002;-74
2021/11/13 05:52:18;;;;;;;;;;;;;;;12.99;51.95;102050.06;143742;971;46013;-75
2021/11/13 05:54:44;;;;;;;;;;;;;;;13.03;52.02;102048.69;143744;980;46004;-75
2021/11/13 05:57:10;;;;;;;;;;;;;;;13.10;52.15;102054.19;143741;982;46010;-75
2021/11/13 05:59:35;;;;;;;;;;;;;;;13.12;51.82;102060.25;143745;984;46002;-75
2021/11/13 06:02:02;;;;;;;;;;;;;;;13.10;52.02;102056.06;143741;980;46012;-75
2021/11/13 06:04:28;;;;;;;;;;;;;;;13.12;52.16;102062.12;143742;980;46004;-75
2021/11/13 06:06:53;;;;;;;;;;;;;;;13.18;51.74;102058.69;143742;977;46011;-76
2021/11/13 06:09:19;;;;;;;;;;;;;;;13.24;51.64;102067.94;143745;983;46002;-76
2021/11/13 06:11:45;;;;;;;;;;;;;;;13.29;51.16;102060.94;143741;979;46021;-75
2021/11/13 06:14:11;;;;;;;;;;;;;;;13.34;51.20;102065.78;143743;980;46004;-76
2021/11/13 06:16:37;;;;;;;;;;;;;;;13.39;51.03;102070.63;143740;973;46010;-75
2021/11/13 06:19:03;;;;;;;;;;;;;;;13.41;50.99;102074.03;143742;984;47002;-75
2021/11/13 06:21:29;;;;;;;;;;;;;;;13.47;50.95;102073.28;143741;980;46013;-74
2021/11/13 06:23:55;;;;;;;;;;;;;;;13.47;50.90;102071.41;143742;979;46004;-76
2021/11/13 06:26:21;;;;;;;;;;;;;;;13.52;50.86;102073.56;143740;982;46010;-75
2021/11/13 06:28:47;;;;;;;;;;;;;;;13.54;51.12;102079.59;143745;984;46002;-74
2021/11/13 06:31:13;;;;;;;;;;;;;;;13.58;51.15;102072.81;143741;979;46012;-74
2021/11/13 06:33:39;;;;;;;;;;;;;;;13.60;51.30;102067.22;143742;980;46004;-74
2021/11/13 06:36:05;;;;;;;;;;;;;;;13.64;50.95;102069.41;143743;982;46002;-75
2021/11/13 06:38:32;;;;;;;;;;;;;;;13.74;50.85;102073.66;143745;983;46002;-75
2021/11/13 06:40:59;;;;;;;;;;;;;;;13.80;50.40;102072.94;143744;968;46012;-75
2021/11/13 06:43:25;;;;;;;;;;;;;;;13.91;50.15;102067.03;143742;979;46005;-74
2021/11/13 06:45:50;;;;;;;;;;;;;;;14.01;49.70;102072.16;143741;981;46010;-75
2021/11/13 06:48:17;;;;;;;;;;;;;;;14.08;49.51;102078.50;143746;984;46002;-74
2021/11/13 06:50:46;;;;;;;;;;;;;;;14.16;49.75;102082.97;143742;980;46013;-76
2021/11/13 06:53:12;;;;;;;;;;;;;;;14.25;49.35;102075.56;143742;979;46004;-75
2021/11/13 06:55:38;;;;;;;;;;;;;;;14.33;49.46;102078.16;143741;982;46010;-76
2021/11/13 06:58:04;;;;;;;;;;;;;;;14.48;49.44;102083.53;143745;984;46002;-76
2021/11/13 07:00:30;;;;;;;;;;;;;;;14.60;48.83;102078.47;143741;979;46012;-77
2021/11/13 07:02:59;;;;;;;;;;;;;;;14.70;48.98;102073.59;143743;972;46012;-76
2021/11/13 07:05:26;;;;;;;;;;;;;;;14.80;48.67;102073.28;143741;982;46936;-79
2021/11/13 07:07:52;;;;;;;;;;;;;;;14.86;48.96;102079.78;143743;964;47002;-77
2021/11/13 07:10:19;;;;;;;;;;;;;;;14.98;47.73;102072.81;143741;980;46012;-75
2021/11/13 07:12:45;;;;;;;;;;;;;;;15.06;47.28;102074.56;143742;980;46004;-76
2021/11/13 07:15:11;;;;;;;;;;;;;;;15.14;47.42;102077.09;143740;981;46010;-76
2021/11/13 07:17:38;;;;;;;;;;;;;;;15.24;47.24;102082.19;143745;984;46002;-75
2021/11/13 07:20:04;;;;;;;;;;;;;;;15.27;47.17;102086.34;143740;980;47012;-76
2021/11/13 07:22:30;;;;;;;;;;;;;;;15.31;47.48;102077.66;143726;978;50004;-76
2021/11/13 07:24:56;;;;;;;;;;;;;;;15.37;46.98;102084.16;143743;960;46002;-76
2021/11/13 07:27:22;;;;;;;;;;;;;;;15.38;47.02;102083.12;143745;984;46003;-74
2021/11/13 07:29:58;;;;;;;;;;;;;;;15.45;47.42;102091.28;143741;979;46013;-82
2021/11/13 07:32:25;;;;;;;;;;;;;;;15.59;47.04;102084.09;143743;980;46004;-76
2021/11/13 07:34:51;;;;;;;;;;;;;;;15.75;46.79;102088.34;143742;982;46010;-74
2021/11/13 07:37:17;;;;;;;;;;;;;;;15.93;46.33;102084.31;143746;983;46002;-76
2021/11/13 07:39:43;;;;;;;;;;;;;;;16.17;46.14;102096.50;143741;975;46012;-79
2021/11/13 07:42:09;;;;;;;;;;;;;;;16.37;45.45;102088.47;143738;965;49014;-79
2021/11/13 07:44:35;;;;;;;;;;;;;;;16.56;44.90;102094.97;143741;981;46011;-79
2021/11/13 07:47:01;;;;;;;;;;;;;;;16.77;44.77;102095.84;143745;984;46002;-80
2021/11/13 07:49:28;;;;;;;;;;;;;;;16.99;44.38;102095.72;143745;980;46012;-79
2021/11/13 07:51:54;;;;;;;;;;;;;;;17.18;43.74;102091.31;143741;979;47005;-79
2021/11/13 07:54:20;;;;;;;;;;;;;;;17.25;43.65;102093.00;143742;973;46010;-78
2021/11/13 07:56:46;;;;;;;;;;;;;;;17.41;43.89;102090.87;143744;984;46002;-80
2021/11/13 07:59:13;;;;;;;;;;;;;;;17.60;42.77;102094.63;143746;980;45939;-78
2021/11/13 08:01:40;;;;;;;;;;;;;;;17.84;42.25;102093.09;143744;979;46012;-79
2021/11/13 08:04:06;;;;;;;;;;;;;;;17.94;42.49;102089.09;143745;982;46010;-75
2021/11/13 08:06:32;;;;;;;;;;;;;;;17.99;42.93;102082.00;143746;984;46002;-75
2021/11/13 08:08:58;;;;;;;;;;;;;;;18.05;42.34;102085.75;143744;955;46010;-79
2021/11/13 08:11:24;;;;;;;;;;;;;;;18.15;42.28;102082.56;143738;980;49012;-74
2021/11/13 08:13:50;;;;;;;;;;;;;;;18.26;42.01;102086.50;143743;971;46010;-74
2021/11/13 08:16:16;;;;;;;;;;;;;;;18.33;42.19;102085.41;143746;984;46002;-74
2021/11/13 08:18:42;;;;;;;;;;;;;;;18.40;42.59;102081.81;143742;979;46021;-73
2021/11/13 08:21:08;;;;;;;;;;;;;;;18.51;41.92;102081.13;143742;980;46004;-73
2021/11/13 08:23:34;;;;;;;;;;;;;;;18.60;41.73;102081.72;143742;982;46014;-72
2021/11/13 08:26:00;;;;;;;;;;;;;;;18.75;41.87;102076.78;143745;986;46000;-73
2021/11/13 08:28:26;;;;;;;;;;;;;;;18.85;41.60;102083.63;143744;974;46010;-72
2021/11/13 08:30:53;;;;;;;;;;;;;;;19.02;41.16;102076.59;143743;984;46002;-73
2021/11/13 08:33:19;;;;;;;;;;;;;;;19.17;41.22;102073.56;143741;985;46008;-72
2021/11/13 08:35:46;;;;;;;;;;;;;;;19.29;40.60;102083.72;143745;985;46000;-73
2021/11/13 08:38:12;;;;;;;;;;;;;;;19.15;40.86;102083.00;143741;984;46010;-71
2021/11/13 08:40:39;;;;;;;;;;;;;;;19.15;40.91;102083.84;143741;984;46002;-71
2021/11/13 08:43:05;;;;;;;;;;;;;;;19.12;40.89;102097.91;143742;986;46000;-72
2021/11/13 08:45:31;;;;;;;;;;;;;;;19.17;40.87;102081.72;143745;985;46008;-71
2021/11/13 08:47:57;;;;;;;;;;;;;;;19.20;40.86;102086.72;143741;984;46010;-73
2021/11/13 08:50:25;;;;;;;;;;;;;;;19.35;41.46;102083.66;143743;967;46002;-72
2021/11/13 08:52:53;;;;;;;;;;;;;;;19.48;41.26;102079.16;143740;985;46008;-72
2021/11/13 08:55:20;;;;;;;;;;;;;;;19.68;41.12;102082.47;143747;986;46000;-72
2021/11/13 08:57:46;;;;;;;;;;;;;;;19.78;40.57;102070.22;143741;983;46011;-73
2021/11/13 09:00:13;;;;;;;;;;;;;;;19.87;39.96;102068.03;143740;983;46935;-75
2021/11/13 09:02:39;;;;;;;;;;;;;;;20.18;39.61;102072.50;143741;977;46941;-71
2021/11/13 09:05:06;;;;;;;;;;;;;;;20.83;37.94;102076.41;143745;985;46000;-72
2021/11/13 09:07:32;;;;;;;;;;;;;;;22.39;35.07;102066.94;143744;983;46010;-71
2021/11/13 09:09:58;;;;;;;;;;;;;;;24.55;31.05;102062.84;143742;978;46002;-71
2021/11/13 09:12:27;;;;;;;;;;;;;;;26.42;27.82;102060.06;143741;983;46009;-71
2021/11/13 09:14:59;;;;;;;;;;;;;;;28.34;25.53;102063.16;143745;986;46000;-71
2021/11/13 09:17:25;;;;;;;;;;;;;;;29.80;23.33;102064.28;143741;981;46010;-71
2021/11/13 09:19:52;;;;;;;;;;;;;;;31.22;21.26;102047.91;143746;984;45935;-68
2021/11/13 09:22:20;;;;;;;;;;;;;;;32.71;19.92;102046.50;143746;985;45933;-70
2021/11/13 09:24:47;;;;;;;;;;;;;;;33.50;18.78;102043.31;143743;985;46008;-68
2021/11/13 09:27:13;;;;;;;;;;;;;;;33.94;18.28;102038.62;143742;976;46012;-74
2021/11/13 09:29:39;;;;;;;;;;;;;;;34.41;18.00;102037.94;143742;979;46004;-72
2021/11/13 09:32:05;;;;;;;;;;;;;;;34.99;17.38;102031.25;143739;982;46010;-72
2021/11/13 09:34:31;;;;;;;;;;;;;;;35.53;17.01;102027.88;143745;984;46003;-70
2021/11/13 09:36:57;;;;;;;;;;;;;;;36.22;16.17;102020.09;143742;979;46013;-68
2021/11/13 09:39:23;;;;;;;;;;;;;;;36.68;15.62;102017.34;143742;980;46004;-69
2021/11/13 09:41:49;;;;;;;;;;;;;;;36.58;15.59;102011.38;143741;982;46011;-71
2021/11/13 09:44:18;;;;;;;;;;;;;;;36.03;16.00;102012.22;143744;968;46002;-72
2021/11/13 09:46:46;;;;;;;;;;;;;;;33.02;19.91;102011.50;143740;969;46936;-68
2021/11/13 09:49:11;;;;;;;;;;;;;;;33.62;18.57;102014.81;143741;980;46005;-67
2021/11/13 09:51:38;;;;;;;;;;;;;;;35.49;16.47;102002.56;143742;981;46002;-69
2021/11/13 09:54:04;;;;;;;;;;;;;;;31.62;20.64;102012.09;143740;984;46006;-69
2021/11/13 09:56:30;;;;;;;;;;;;;;;28.98;24.57;102007.94;143742;980;46012;-70
2021/11/13 09:58:56;;;;;;;;;;;;;;;29.67;23.70;102009.59;143743;979;46004;-69
2021/11/13 10:01:22;;;;;;;;;;;;;;;28.98;24.31;102005.16;143742;982;46010;-69
2021/11/13 10:03:48;;;;;;;;;;;;;;;27.72;25.90;102002.78;143745;984;46002;-69
2021/11/13 10:06:14;;;;;;;;;;;;;;;27.04;26.77;101990.31;143742;979;46012;-71
2021/11/13 10:08:41;;;;;;;;;;;;;;;26.58;27.28;101983.75;143744;980;46004;-70
2021/11/13 10:11:08;;;;;;;;;;;;;;;26.51;27.69;101980.44;143742;978;46010;-70
2021/11/13 10:13:36;;;;;;;;;;;;;;;29.12;24.32;101979.56;143745;983;46002;-72
2021/11/13 10:16:07;;;;;;;;;;;;;;;32.48;20.45;101971.44;143744;975;46012;-71
2021/11/13 10:18:36;;;;;;;;;;;;;;;34.75;17.67;101974.84;143733;976;51024;-71
2021/11/13 10:21:12;;;;;;;;;;;;;;;36.22;15.93;101971.72;143742;981;46010;-76
2021/11/13 10:23:43;;;;;;;;;;;;;;;36.95;14.84;101963.84;143746;984;46002;-73
2021/11/13 10:26:13;;;;;;;;;;;;;;;38.13;14.16;101970.53;143742;980;46012;-74
2021/11/13 10:28:44;;;;;;;;;;;;;;;38.82;13.20;101965.53;143744;979;46004;-74
2021/11/13 10:31:12;;;;;;;;;;;;;;;39.10;12.94;101955.34;143742;982;46010;-74
2021/11/13 10:33:39;;;;;;;;;;;;;;;39.19;12.83;101955.13;143744;984;46003;-72
2021/11/13 10:36:05;;;;;;;;;;;;;;;39.37;12.53;101949.94;143745;969;46012;-74
2021/11/13 10:38:31;;;;;;;;;;;;;;;39.26;12.61;101949.69;143740;980;46004;-72
2021/11/13 10:41:00;;;;;;;;;;;;;;;38.96;12.48;101950.22;143742;982;46010;-73
2021/11/13 10:43:42;;;;;;;;;;;;;;;38.75;12.86;101942.88;143745;983;46003;-73
2021/11/13 10:46:09;;;;;;;;;;;;;;;36.65;14.01;101936.84;143741;980;46012;-73
2021/11/13 10:48:38;;;;;;;;;;;;;;;32.78;18.33;101935.59;143743;980;46005;-73
2021/11/13 10:51:24;;;;;;;;;;;;;;;30.79;19.86;101924.97;143740;981;47011;-72
2021/11/13 10:53:50;;;;;;;;;;;;;;;29.32;21.55;101936.97;143746;984;46002;-72
2021/11/13 10:56:21;;;;;;;;;;;;;;;28.37;24.35;101932.72;143741;980;46013;-72
2021/11/13 10:58:53;;;;;;;;;;;;;;;28.10;23.74;101925.81;143743;979;46004;-72
2021/11/13 11:01:48;;;;;;;;;;;;;;;28.08;24.93;101927.16;143740;982;46010;-72
2021/11/13 11:04:20;;;;;;;;;;;;;;;27.68;24.51;101910.59;143745;984;46002;-72
2021/11/13 11:06:50;;;;;;;;;;;;;;;27.27;25.03;101913.59;143741;979;46012;-74
2021/11/13 11:09:35;;;;;;;;;;;;;;;26.94;26.13;101911.22;143742;980;46004;-75
2021/11/13 11:12:06;;;;;;;;;;;;;;;26.69;26.52;101915.66;143742;982;46011;-75
2021/11/13 11:14:33;;;;;;;;;;;;;;;26.48;26.62;101904.66;143743;981;48002;-74
2021/11/13 11:17:01;;;;;;;;;;;;;;;26.24;27.23;101900.87;143742;978;46012;-74
2021/11/13 11:19:37;;;;;;;;;;;;;;;25.88;27.72;101896.12;143743;980;46004;-75
2021/11/13 11:22:07;;;;;;;;;;;;;;;25.45;28.85;101907.34;143743;981;46006;-76
2021/11/13 11:24:36;;;;;;;;;;;;;;;25.00;29.11;101895.03;143744;984;47002;-75
2021/11/13 11:27:04;;;;;;;;;;;;;;;24.53;30.08;101900.25;143744;980;45936;-75
2021/11/13 11:29:33;;;;;;;;;;;;;;;24.20;30.59;101899.44;143744;968;47009;-76
2021/11/13 11:32:01;;;;;;;;;;;;;;;24.11;31.64;101899.09;143743;982;45014;-73
2021/11/13 11:34:41;;;;;;;;;;;;;;;24.06;31.48;101888.91;102307;57;10047148;-73
2021/11/13 11:40:14;;;;;;;;;;;;;;;23.61;31.78;101881.88;143743;984;46007;-73
2021/11/13 11:42:41;;;;;;;;;;;;;;;23.57;32.58;101883.47;143746;981;46002;-73
2021/11/13 11:45:08;;;;;;;;;;;;;;;23.41;33.16;101885.22;143744;974;46012;-73
2021/11/13 11:47:34;;;;;;;;;;;;;;;23.41;32.97;101883.31;143743;978;46004;-72
2021/11/13 11:50:03;;;;;;;;;;;;;;;23.24;33.21;101866.94;143743;968;46935;-71
2021/11/13 11:52:30;;;;;;;;;;;;;;;23.14;33.23;101880.50;143745;962;46002;-72
2021/11/13 11:54:56;;;;;;;;;;;;;;;23.09;32.97;101883.16;143745;975;46020;-71
2021/11/13 11:57:32;;;;;;;;;;;;;;;22.95;33.64;101880.81;135733;57;10002109;-73
2021/11/13 11:59:59;;;;;;;;;;;;;;;22.76;34.55;101868.50;134229;57;10004766;-74
2021/11/13 12:02:34;;;;;;;;;;;;;;;22.81;34.41;101880.34;143741;929;46010;-72
2021/11/13 12:05:05;;;;;;;;;;;;;;;22.64;34.96;101877.66;105086;57;10003672;-73
2021/11/13 12:07:31;;;;;;;;;;;;;;;22.47;35.63;101869.47;143743;984;48002;-73
2021/11/13 12:09:58;;;;;;;;;;;;;;;22.50;35.19;101865.41;143741;979;48004;-72
2021/11/13 12:15:27;;;;;;;;;;;;;;;22.33;35.63;101865.38;143741;986;46010;-71
2021/11/13 12:17:55;;;;;;;;;;;;;;;22.21;35.82;101862.72;143745;980;46002;-71
2021/11/13 12:20:31;;;;;;;;;;;;;;;22.05;36.02;101861.66;143739;975;49013;-71
2021/11/13 12:22:59;;;;;;;;;;;;;;;21.80;37.25;101865.59;143744;976;46012;-71
2021/11/13 12:25:30;;;;;;;;;;;;;;;21.64;36.80;101862.59;143742;985;46010;-71
2021/11/13 12:28:24;;;;;;;;;;;;;;;21.64;36.57;101859.88;143745;979;46002;-71
2021/11/13 12:30:55;;;;;;;;;;;;;;;21.54;37.55;101856.91;143742;986;47004;-70
2021/11/13 12:33:38;;;;;;;;;;;;;;;21.49;37.41;101854.91;143743;976;46005;-70
2021/11/13 12:36:16;;;;;;;;;;;;;;;21.40;37.33;101852.81;143742;986;46010;-70
2021/11/13 12:38:43;;;;;;;;;;;;;;;21.28;37.35;101848.22;143744;980;46010;-71
2021/11/13 12:41:14;;;;;;;;;;;;;;;21.19;37.71;101838.75;143742;983;46013;-71